Time;durP1;ratioP1;P1;durP2;ratioP2;P2;SDS_P1;SDS_P2;PMS_P1;PMS_P2;Temp;Humidity;BMP_temperature;BMP_pressure;BME280_temperature;BME280_humidity;BME280_pressure;Samples;Min_cycle;Max_cycle;Signal;HPM_P1;HPM_P2
2023/08/11 00:00:41;;;;;;;;;7.00;7.00;;;;;21.93;64.95;101024.72;5037384;28;46029;-71
2023/08/11 00:03:07;;;;;;;;;8.67;6.00;;;;;22.03;64.95;101037.03;5037325;28;45329;-70
2023/08/11 00:05:40;;;;;;;;;5.00;4.33;;;;;22.07;65.20;101034.34;5035326;28;45560;-71
2023/08/11 00:08:08;;;;;;;;;9.33;7.00;;;;;21.95;64.68;101038.00;5035793;28;45469;-71
2023/08/11 00:10:34;;;;;;;;;6.00;5.67;;;;;21.58;65.91;101043.63;5036838;28;45540;-71
2023/08/11 00:13:00;;;;;;;;;6.67;6.00;;;;;21.52;65.63;101046.31;5036587;28;45414;-71
2023/08/11 00:15:28;;;;;;;;;6.00;6.00;;;;;21.45;66.24;101034.88;5036832;28;46049;-70
2023/08/11 00:18:00;;;;;;;;;9.33;8.00;;;;;21.43;66.68;101039.31;5036654;28;45497;-70
2023/08/11 00:20:29;;;;;;;;;8.33;5.00;;;;;21.41;67.06;101019.81;5037511;28;45335;-71
2023/08/11 00:22:55;;;;;;;;;11.00;9.00;;;;;21.35;67.13;101031.34;5036859;28;45634;-71
2023/08/11 00:25:21;;;;;;;;;7.00;6.33;;;;;21.31;67.07;101018.06;5036520;28;45367;-71
2023/08/11 00:27:47;;;;;;;;;6.67;5.67;;;;;21.25;66.81;101005.75;5034261;28;45383;-71
2023/08/11 00:30:13;;;;;;;;;9.00;6.33;;;;;21.32;66.58;101004.78;5036411;28;45517;-70
2023/08/11 00:32:39;;;;;;;;;6.33;6.00;;;;;21.48;66.33;101024.19;5036697;28;45340;-70
2023/08/11 00:35:05;;;;;;;;;6.00;6.00;;;;;21.54;65.84;101017.94;5036512;28;45964;-71
2023/08/11 00:37:31;;;;;;;;;11.33;7.67;;;;;21.54;66.39;101017.94;5036341;28;45644;-70
2023/08/11 00:39:58;;;;;;;;;8.00;7.00;;;;;21.58;65.80;101023.22;5034622;28;45512;-71
2023/08/11 00:42:24;;;;;;;;;7.67;6.67;;;;;21.63;66.17;101009.91;5037190;28;45564;-70
2023/08/11 00:44:49;;;;;;;;;8.33;6.67;;;;;21.60;65.63;101001.94;5035918;28;45585;-71
2023/08/11 00:47:16;;;;;;;;;6.33;6.00;;;;;21.55;65.64;100996.69;5027194;28;46045;-72
2023/08/11 00:49:43;;;;;;;;;4.67;4.67;;;;;21.59;65.39;101005.53;5036293;28;45411;-70
2023/08/11 00:52:09;;;;;;;;;6.67;5.33;;;;;21.64;65.00;101009.00;5036490;28;45501;-70
2023/08/11 00:54:36;;;;;;;;;6.67;6.33;;;;;21.38;66.80;101001.22;5037805;28;46867;-70
2023/08/11 00:57:03;;;;;;;;;11.00;5.33;;;;;21.19;66.72;101004.00;5035677;28;45532;-70
2023/08/11 00:59:29;;;;;;;;;10.00;6.67;;;;;21.18;67.59;101004.88;5036389;28;45444;-70
2023/08/11 01:01:54;;;;;;;;;6.00;5.00;;;;;21.12;66.96;100994.28;5028547;28;45522;-70
2023/08/11 01:04:21;;;;;;;;;7.00;6.00;;;;;21.29;66.53;101003.91;5035746;28;45394;-70
2023/08/11 01:07:02;;;;;;;;;11.00;7.00;;;;;21.30;66.32;100995.06;5036352;28;45537;-70
2023/08/11 01:09:57;;;;;;;;;7.00;7.00;;;;;21.34;66.63;100980.88;5035909;28;45463;-71
2023/08/11 01:12:33;;;;;;;;;7.00;6.00;;;;;21.34;66.54;100987.06;5036156;28;45261;-71
2023/08/11 01:14:59;;;;;;;;;7.00;6.00;;;;;21.38;65.77;100988.78;5036307;28;46113;-71
2023/08/11 01:17:27;;;;;;;;;7.33;6.00;;;;;21.26;66.05;100975.59;5035668;28;45471;-70
2023/08/11 01:19:53;;;;;;;;;7.00;6.67;;;;;21.28;65.82;100989.75;5035955;28;45414;-70
2023/08/11 01:22:23;;;;;;;;;6.00;6.00;;;;;21.31;66.00;100979.13;5036619;28;45446;-70
2023/08/11 01:24:50;;;;;;;;;5.67;5.67;;;;;21.28;65.63;100967.63;5035037;28;45966;-71
2023/08/11 01:27:16;;;;;;;;;5.67;5.00;;;;;21.35;65.50;100959.59;5035745;28;45604;-70
2023/08/11 01:29:41;;;;;;;;;9.33;7.67;;;;;21.31;65.49;100954.31;5035427;28;45520;-71
2023/08/11 01:32:08;;;;;;;;;5.33;4.33;;;;;21.28;66.20;100973.81;5035935;28;45215;-71
2023/08/11 01:34:34;;;;;;;;;8.33;6.00;;;;;21.27;66.65;100972.06;5035126;28;45622;-71
2023/08/11 01:37:00;;;;;;;;;5.00;5.00;;;;;21.22;66.04;100958.78;5036397;28;45323;-70
2023/08/11 01:39:27;;;;;;;;;7.33;6.33;;;;;21.17;66.76;100951.75;5032907;28;45459;-71
2023/08/11 01:41:53;;;;;;;;;6.67;5.33;;;;;21.21;67.05;100966.81;5036441;28;45572;-70
2023/08/11 01:44:20;;;;;;;;;6.00;5.00;;;;;21.12;67.11;100962.41;5034939;28;45528;-71
2023/08/11 01:46:47;;;;;;;;;7.00;7.00;;;;;21.00;67.17;100959.84;5035203;28;45571;-71
2023/08/11 01:49:14;;;;;;;;;6.00;6.00;;;;;20.99;66.95;100950.09;5035254;28;45569;-70
2023/08/11 01:51:40;;;;;;;;;6.33;5.00;;;;;21.09;66.15;100948.25;5037416;28;45369;-70
2023/08/11 01:54:07;;;;;;;;;9.67;6.67;;;;;21.13;66.29;100955.31;5034601;28;47499;-71
2023/08/11 01:56:34;;;;;;;;;6.00;6.00;;;;;20.98;66.93;100957.19;5039582;28;45381;-71
2023/08/11 01:59:02;;;;;;;;;5.00;5.00;;;;;20.96;66.84;100969.59;5033966;28;45588;-71
2023/08/11 02:01:28;;;;;;;;;8.00;6.00;;;;;21.03;66.42;100962.50;5039453;28;45568;-70
2023/08/11 02:03:54;;;;;;;;;6.67;6.67;;;;;20.99;66.25;100969.59;5038355;28;45358;-71
2023/08/11 02:06:19;;;;;;;;;6.00;5.00;;;;;21.01;66.14;100962.50;5038660;28;45470;-71
2023/08/11 02:08:46;;;;;;;;;5.67;5.00;;;;;21.05;66.38;100971.34;5039131;28;45498;-70
2023/08/11 02:11:13;;;;;;;;;5.67;5.00;;;;;21.02;66.07;100966.03;5039055;28;45391;-70
2023/08/11 02:13:39;;;;;;;;;10.00;7.00;;;;;21.02;66.32;100969.56;5038376;28;46209;-70
2023/08/11 02:16:05;;;;;;;;;5.00;5.00;;;;;21.00;66.51;100962.50;5038450;28;45402;-71
2023/08/11 02:18:31;;;;;;;;;5.00;5.00;;;;;20.93;66.69;100960.75;5038797;28;45405;-71
2023/08/11 02:20:56;;;;;;;;;7.67;6.67;;;;;20.97;66.79;100967.81;5038642;28;45449;-70
2023/08/11 02:23:22;;;;;;;;;7.00;7.00;;;;;20.68;67.07;100960.91;5038385;28;45518;-72
2023/08/11 02:25:48;;;;;;;;;8.67;7.00;;;;;20.58;67.42;100970.66;5031788;28;45585;-71
2023/08/11 02:28:13;;;;;;;;;8.00;7.00;;;;;20.48;67.30;100973.38;5038235;28;45497;-70
2023/08/11 02:30:41;;;;;;;;;8.00;7.67;;;;;20.37;67.88;100971.66;5038130;28;45552;-70
2023/08/11 02:33:07;;;;;;;;;7.67;6.00;;;;;20.39;68.56;100971.63;5038499;28;45461;-71
2023/08/11 02:35:33;;;;;;;;;9.67;7.00;;;;;20.37;68.40;100965.44;5038012;28;45617;-70
2023/08/11 02:37:58;;;;;;;;;8.33;7.00;;;;;20.42;68.67;100961.00;5038232;28;45335;-71
2023/08/11 02:40:25;;;;;;;;;7.00;7.00;;;;;20.47;68.77;100961.84;5046789;28;45498;-71
2023/08/11 02:42:56;;;;;;;;;10.33;7.67;;;;;20.42;68.82;100955.69;5038197;28;45835;-71
2023/08/11 02:45:22;;;;;;;;;7.00;6.00;;;;;20.39;69.03;100951.28;5037925;28;45367;-72
2023/08/11 02:47:49;;;;;;;;;10.33;6.67;;;;;20.33;69.07;100948.63;5037759;28;45451;-70
2023/08/11 02:50:15;;;;;;;;;6.00;4.67;;;;;20.40;68.53;100944.22;5038318;28;45935;-70
2023/08/11 02:52:41;;;;;;;;;5.67;5.33;;;;;20.51;67.76;100946.78;5036322;28;46447;-70
2023/08/11 02:55:07;;;;;;;;;6.67;6.67;;;;;20.42;67.64;100937.13;5038263;28;45390;-71
2023/08/11 02:57:34;;;;;;;;;9.33;8.00;;;;;20.40;68.19;100947.72;5038378;28;45356;-71
2023/08/11 03:00:00;;;;;;;;;8.00;5.00;;;;;20.40;67.92;100946.84;5038015;28;45412;-70
2023/08/11 03:02:26;;;;;;;;;6.00;5.33;;;;;20.50;67.48;100950.34;5037396;28;45478;-71
2023/08/11 03:04:52;;;;;;;;;7.00;6.00;;;;;20.54;67.54;100946.78;5037118;28;45768;-70
2023/08/11 03:07:18;;;;;;;;;6.67;6.00;;;;;20.59;67.89;100955.63;5037816;28;45329;-71
2023/08/11 03:09:43;;;;;;;;;8.67;6.67;;;;;20.60;67.50;100952.97;5037585;28;45366;-70
2023/08/11 03:12:10;;;;;;;;;8.33;7.67;;;;;20.55;67.52;100943.25;5038136;28;46100;-70
2023/08/11 03:14:36;;;;;;;;;7.00;6.67;;;;;20.48;67.38;100942.41;5036537;28;45489;-70
2023/08/11 03:17:05;;;;;;;;;6.00;5.67;;;;;20.50;67.67;100955.66;5024925;28;45518;-71
2023/08/11 03:19:32;;;;;;;;;6.33;6.33;;;;;20.31;67.93;100952.19;5034111;28;45490;-71
2023/08/11 03:21:58;;;;;;;;;7.33;6.33;;;;;20.18;68.10;100936.31;5037984;28;46181;-70
2023/08/11 03:24:24;;;;;;;;;8.33;7.00;;;;;20.27;67.78;100938.03;5037307;28;45474;-71
2023/08/11 03:26:50;;;;;;;;;5.33;5.33;;;;;20.35;67.86;100943.31;5037444;28;45469;-71
2023/08/11 03:29:15;;;;;;;;;7.00;6.33;;;;;20.42;67.39;100948.59;5037566;28;45534;-70
2023/08/11 03:31:41;;;;;;;;;8.33;6.67;;;;;20.44;67.00;100944.16;5037207;28;45505;-70
2023/08/11 03:34:07;;;;;;;;;7.00;5.00;;;;;20.43;67.10;100945.09;5037233;28;45639;-71
2023/08/11 03:36:33;;;;;;;;;9.33;7.00;;;;;20.42;67.03;100937.13;5037777;28;45477;-71
2023/08/11 03:38:59;;;;;;;;;8.00;6.00;;;;;20.37;67.36;100938.91;5037365;28;45422;-71
2023/08/11 03:41:25;;;;;;;;;8.33;8.33;;;;;20.29;67.53;100946.88;5037631;28;45431;-70
2023/08/11 03:43:50;;;;;;;;;5.67;5.67;;;;;20.19;67.67;100929.25;5032511;28;45509;-71
2023/08/11 03:46:16;;;;;;;;;8.33;5.67;;;;;20.27;67.60;100943.34;5037161;28;45496;-70
2023/08/11 03:48:42;;;;;;;;;7.67;6.33;;;;;20.31;67.51;100941.56;5037177;28;45473;-70
2023/08/11 03:51:08;;;;;;;;;6.67;6.33;;;;;20.23;67.94;100939.84;5031503;28;46946;-70
2023/08/11 03:53:35;;;;;;;;;5.33;5.00;;;;;20.08;68.53;100944.31;5037577;28;45544;-70
2023/08/11 03:56:00;;;;;;;;;8.00;7.67;;;;;19.97;68.86;100939.91;5040092;28;45412;-70
2023/08/11 03:58:26;;;;;;;;;8.67;5.33;;;;;19.88;68.85;100929.34;5036956;28;45389;-70
2023/08/11 04:00:53;;;;;;;;;6.00;6.00;;;;;19.85;68.85;100929.31;5030963;28;45469;-70
2023/08/11 04:03:19;;;;;;;;;7.00;7.00;;;;;19.82;69.17;100937.31;5036864;28;45501;-71
2023/08/11 04:05:45;;;;;;;;;7.67;7.67;;;;;19.71;69.54;100931.09;5036694;28;45335;-70
2023/08/11 04:08:11;;;;;;;;;8.67;7.33;;;;;19.78;69.39;100940.84;5036754;28;45555;-71
2023/08/11 04:10:37;;;;;;;;;7.67;7.00;;;;;19.79;69.32;100929.34;5036956;28;45501;-70
2023/08/11 04:13:03;;;;;;;;;9.00;7.33;;;;;19.90;69.12;100930.22;5035872;28;45767;-70
2023/08/11 04:15:31;;;;;;;;;7.00;6.67;;;;;19.92;69.48;100941.69;5036348;28;45528;-70
2023/08/11 04:17:56;;;;;;;;;9.33;7.67;;;;;19.84;69.92;100938.19;5036978;28;45457;-71
2023/08/11 04:20:23;;;;;;;;;7.67;6.33;;;;;19.77;69.97;100931.13;5036353;28;45919;-70
2023/08/11 04:22:49;;;;;;;;;7.33;7.00;;;;;19.93;69.23;100945.22;5036368;28;45744;-71
2023/08/11 04:25:14;;;;;;;;;10.33;8.33;;;;;19.96;68.27;100942.59;5036289;28;45475;-71
2023/08/11 04:27:40;;;;;;;;;6.33;6.33;;;;;19.92;68.04;100936.41;5036507;28;45390;-71
2023/08/11 04:30:08;;;;;;;;;7.33;7.00;;;;;19.97;68.02;100942.56;5035883;28;46106;-71
2023/08/11 04:32:33;;;;;;;;;9.33;7.33;;;;;19.96;67.84;100940.81;5037372;28;45561;-71
2023/08/11 04:34:59;;;;;;;;;6.33;6.00;;;;;19.94;68.33;100939.06;5037342;28;45336;-71
2023/08/11 04:37:25;;;;;;;;;9.00;7.67;;;;;19.95;68.37;100939.03;5036175;28;45324;-72
2023/08/11 04:39:51;;;;;;;;;8.00;7.00;;;;;19.96;68.38;100943.47;5037312;28;45442;-71
2023/08/11 04:42:16;;;;;;;;;9.00;7.00;;;;;19.91;68.91;100947.00;5037301;28;45431;-71
2023/08/11 04:44:42;;;;;;;;;8.33;7.00;;;;;19.85;69.31;100947.88;5037357;28;45505;-71
2023/08/11 04:47:08;;;;;;;;;7.67;7.33;;;;;19.79;68.82;100930.22;5037813;28;45189;-71
2023/08/11 04:49:34;;;;;;;;;8.67;7.67;;;;;19.88;68.52;100934.66;5037070;28;45304;-71
2023/08/11 04:51:59;;;;;;;;;8.00;8.00;;;;;19.94;68.57;100944.34;5037186;28;45489;-71
2023/08/11 04:54:25;;;;;;;;;7.67;7.00;;;;;19.86;68.64;100947.03;5031219;28;45528;-73
2023/08/11 04:56:51;;;;;;;;;6.33;6.33;;;;;19.95;68.58;100944.31;5032118;28;45577;-72
2023/08/11 04:59:20;;;;;;;;;7.33;6.67;;;;;19.93;68.31;100939.94;5025669;28;45567;-71
2023/08/11 05:01:46;;;;;;;;;6.00;6.00;;;;;19.76;68.79;100943.50;5036233;28;45521;-71
2023/08/11 05:04:12;;;;;;;;;6.33;6.33;;;;;19.66;69.04;100944.38;5037239;28;45539;-71
2023/08/11 05:06:38;;;;;;;;;7.00;6.67;;;;;19.42;69.22;100938.19;5036388;28;45360;-71
2023/08/11 05:09:04;;;;;;;;;6.00;6.00;;;;;19.30;69.85;100934.63;5036850;28;45338;-71
2023/08/11 05:11:29;;;;;;;;;10.00;9.67;;;;;19.23;70.30;100937.28;5037065;28;45593;-71
2023/08/11 05:13:55;;;;;;;;;7.00;7.00;;;;;19.22;70.03;100932.91;5035767;28;45498;-71
2023/08/11 05:16:21;;;;;;;;;7.67;6.67;;;;;19.26;70.32;100939.97;5037296;28;45260;-71
2023/08/11 05:18:47;;;;;;;;;8.33;7.67;;;;;19.26;70.20;100936.44;5035449;28;46426;-71
2023/08/11 05:21:13;;;;;;;;;9.67;9.00;;;;;19.41;69.94;100944.34;5036976;28;45956;-72
2023/08/11 05:23:39;;;;;;;;;7.00;7.00;;;;;19.58;69.42;100943.50;5036227;28;45493;-71
2023/08/11 05:26:05;;;;;;;;;10.67;9.33;;;;;19.68;69.12;100940.81;5038293;28;45552;-72
2023/08/11 05:28:30;;;;;;;;;9.00;8.00;;;;;19.79;68.25;100948.78;5040106;28;46114;-71
2023/08/11 05:30:56;;;;;;;;;8.00;7.00;;;;;19.84;68.34;100952.31;5040136;28;45529;-71
2023/08/11 05:33:23;;;;;;;;;7.00;6.33;;;;;19.86;68.11;100941.72;5040513;28;45475;-71
2023/08/11 05:35:49;;;;;;;;;10.00;9.00;;;;;19.97;68.08;100937.25;5040596;28;45291;-70
2023/08/11 05:38:14;;;;;;;;;7.33;7.33;;;;;20.09;67.32;100944.28;5040305;28;45830;-71
2023/08/11 05:40:41;;;;;;;;;7.33;7.33;;;;;20.12;67.29;100940.78;5040533;28;45297;-72
2023/08/11 05:43:07;;;;;;;;;6.67;6.33;;;;;20.09;67.49;100938.13;5040273;28;45410;-72
2023/08/11 05:45:33;;;;;;;;;8.00;7.67;;;;;20.00;67.42;100910.75;5038939;28;45502;-71
2023/08/11 05:47:59;;;;;;;;;11.00;7.00;;;;;20.26;67.06;100941.59;5039778;28;46070;-74
2023/08/11 05:50:25;;;;;;;;;9.67;8.00;;;;;20.32;66.67;100941.56;5038536;28;46055;-72
2023/08/11 05:52:52;;;;;;;;;10.67;8.67;;;;;20.21;66.70;100925.72;5040068;28;45338;-73
2023/08/11 05:55:18;;;;;;;;;7.67;7.33;;;;;20.29;66.43;100927.44;5040170;28;45291;-74
2023/08/11 05:57:43;;;;;;;;;9.00;8.67;;;;;20.31;66.75;100933.63;5040005;28;45556;-72
2023/08/11 06:00:09;;;;;;;;;7.33;6.67;;;;;20.23;66.70;100933.63;5039393;28;45493;-73
2023/08/11 06:02:35;;;;;;;;;14.50;11.25;;;;;20.18;66.66;100920.41;5038068;28;45566;-73
2023/08/11 06:05:01;;;;;;;;;11.67;9.33;;;;;20.22;66.55;100929.25;5039830;28;45498;-72
2023/08/11 06:07:26;;;;;;;;;12.00;9.33;;;;;20.18;66.65;100925.72;5039518;28;45509;-76
2023/08/11 06:09:52;;;;;;;;;8.00;6.67;;;;;20.13;66.99;100916.00;5039781;28;45501;-72
2023/08/11 06:12:18;;;;;;;;;11.00;10.00;;;;;20.23;66.90;100928.34;5039781;28;45426;-76
2023/08/11 06:14:43;;;;;;;;;10.67;10.67;;;;;20.27;67.19;100924.78;5040023;28;45493;-75
2023/08/11 06:17:09;;;;;;;;;6.00;6.00;;;;;20.39;66.95;100911.50;5039549;28;45370;-75
2023/08/11 06:19:34;;;;;;;;;10.33;9.33;;;;;20.54;67.22;100931.75;5039427;28;45506;-76
2023/08/11 06:22:00;;;;;;;;;6.33;6.33;;;;;20.79;67.15;100924.56;5039358;28;45410;-74
2023/08/11 06:24:25;;;;;;;;;11.00;10.33;;;;;21.06;66.89;100919.97;5038795;28;45486;-74
2023/08/11 06:26:54;;;;;;;;;8.67;7.00;;;;;22.58;64.09;100910.47;5038382;28;45907;-75
2023/08/11 06:29:20;;;;;;;;;10.67;8.00;;;;;25.17;57.87;100916.28;5037440;28;45368;-74
2023/08/11 06:31:46;;;;;;;;;8.67;8.00;;;;;27.10;52.14;100912.63;5039637;28;45486;-76
2023/08/11 06:34:12;;;;;;;;;10.00;9.00;;;;;28.48;47.31;100911.34;5037903;28;45336;-72
2023/08/11 06:36:38;;;;;;;;;6.33;6.00;;;;;29.88;46.62;100917.25;5037389;28;45420;-76
2023/08/11 06:39:04;;;;;;;;;8.33;7.33;;;;;30.97;42.69;100914.00;5038630;28;45341;-74
2023/08/11 06:41:29;;;;;;;;;8.00;8.00;;;;;31.86;40.63;100905.91;5038745;28;45510;-74
2023/08/11 06:43:56;;;;;;;;;8.00;7.00;;;;;32.70;39.62;100906.69;5039399;28;45430;-75
2023/08/11 06:46:22;;;;;;;;;8.33;8.00;;;;;31.97;40.44;100906.16;5038639;28;45768;-75
2023/08/11 06:48:47;;;;;;;;;6.67;6.33;;;;;33.28;38.52;100901.56;5038221;28;45513;-76
2023/08/11 06:51:13;;;;;;;;;8.00;6.00;;;;;34.43;36.78;100907.19;5038343;28;45279;-75
2023/08/11 06:53:38;;;;;;;;;5.00;5.00;;;;;35.35;36.18;100900.25;5038359;28;45357;-76
2023/08/11 06:56:04;;;;;;;;;8.00;6.00;;;;;36.29;36.36;100888.25;5037825;28;45429;-75
2023/08/11 06:58:30;;;;;;;;;7.00;7.00;;;;;37.08;32.08;100883.31;5037949;28;45673;-74
2023/08/11 07:00:55;;;;;;;;;9.00;7.00;;;;;37.10;32.86;100879.47;5036700;28;45574;-75
2023/08/11 07:03:21;;;;;;;;;8.00;7.00;;;;;37.40;30.88;100889.88;5037001;28;45352;-73
2023/08/11 07:05:51;;;;;;;;;9.00;6.00;;;;;38.31;30.50;100887.31;5038218;28;45606;-78
2023/08/11 07:08:18;;;;;;;;;7.00;6.33;;;;;38.82;29.94;100875.81;5038132;28;45542;-75
2023/08/11 07:10:44;;;;;;;;;7.00;6.33;;;;;38.99;29.19;100868.94;5036682;28;45371;-71
2023/08/11 07:13:10;;;;;;;;;8.33;7.00;;;;;38.94;29.37;100876.66;5037815;28;45234;-75
2023/08/11 07:15:40;;;;;;;;;4.00;4.00;;;;;39.62;28.82;100874.47;5035820;28;46376;-74
2023/08/11 07:18:06;;;;;;;;;6.00;5.67;;;;;39.43;28.47;100871.63;5035899;28;45948;-73
2023/08/11 07:20:32;;;;;;;;;8.67;7.67;;;;;40.06;28.34;100863.34;5037390;28;45527;-78
2023/08/11 07:22:57;;;;;;;;;7.00;7.00;;;;;40.29;27.96;100870.34;5037323;28;45509;-74
2023/08/11 07:25:23;;;;;;;;;6.67;5.33;;;;;40.54;27.88;100868.13;5035897;28;45369;-72
2023/08/11 07:27:49;;;;;;;;;4.00;3.33;;;;;40.84;26.60;100864.44;5038032;28;45305;-74
2023/08/11 07:30:14;;;;;;;;;6.00;5.00;;;;;40.96;27.41;100856.97;5037800;28;45302;-74
2023/08/11 07:32:41;;;;;;;;;7.33;6.33;;;;;41.31;26.39;100867.34;5038002;28;45501;-74
2023/08/11 07:35:07;;;;;;;;;5.67;5.00;;;;;41.58;26.12;100873.06;5032491;28;46035;-74
2023/08/11 07:37:33;;;;;;;;;4.00;4.00;;;;;42.37;25.33;100872.66;5035455;28;45557;-75
2023/08/11 07:39:59;;;;;;;;;6.00;4.67;;;;;42.42;26.39;100862.09;5036033;28;45890;-76
2023/08/11 07:42:25;;;;;;;;;5.67;5.67;;;;;42.56;25.17;100859.84;5037051;28;45473;-76
2023/08/11 07:44:51;;;;;;;;;5.33;5.00;;;;;42.86;24.70;100861.41;5036966;28;45355;-74
2023/08/11 07:47:16;;;;;;;;;5.00;4.33;;;;;42.58;24.96;100850.44;5036855;28;45414;-76
2023/08/11 07:49:43;;;;;;;;;7.00;6.00;;;;;42.64;25.29;100857.19;5036587;28;45375;-74
2023/08/11 07:52:09;;;;;;;;;5.67;5.00;;;;;43.09;24.87;100861.78;5037275;28;45406;-74
2023/08/11 07:54:35;;;;;;;;;5.67;5.00;;;;;43.36;24.21;100870.97;5035702;28;46286;-74
2023/08/11 07:57:01;;;;;;;;;6.00;5.33;;;;;43.33;24.09;100866.63;5036041;28;45590;-74
2023/08/11 07:59:26;;;;;;;;;4.00;4.00;;;;;43.73;24.78;100875.34;5035386;28;45476;-73
2023/08/11 08:01:52;;;;;;;;;6.67;6.67;;;;;44.43;23.06;100858.66;5037587;28;45359;-74
2023/08/11 08:04:19;;;;;;;;;5.67;5.67;;;;;44.51;23.17;100852.34;5035868;28;45691;-75
2023/08/11 08:06:45;;;;;;;;;6.00;6.00;;;;;44.71;22.47;100844.63;5036813;28;45415;-74
2023/08/11 08:09:14;;;;;;;;;5.00;4.67;;;;;45.14;22.17;100851.72;5036634;28;45514;-74
2023/08/11 08:11:43;;;;;;;;;8.00;7.00;;;;;44.60;22.62;100841.16;5036503;28;45533;-74
2023/08/11 08:14:10;;;;;;;;;6.00;5.00;;;;;44.37;22.59;100821.66;5036034;28;45467;-74
2023/08/11 08:16:38;;;;;;;;;6.67;5.00;;;;;45.20;22.92;100840.00;5034525;28;45649;-74
2023/08/11 08:19:05;;;;;;;;;5.33;4.67;;;;;45.08;22.29;100846.06;5035024;28;45790;-74
2023/08/11 08:21:32;;;;;;;;;0.00;0.00;;;;;45.44;21.91;100846.56;5037199;28;45368;-75
2023/08/11 08:23:59;;;;;;;;;6.67;6.33;;;;;45.22;21.93;100840.69;5035271;28;48032;-75
2023/08/11 08:26:25;;;;;;;;;4.67;4.33;;;;;44.86;21.89;100818.97;5035065;28;45479;-74
2023/08/11 08:28:51;;;;;;;;;5.00;5.00;;;;;45.18;21.57;100800.72;5036482;28;45455;-74
2023/08/11 08:31:16;;;;;;;;;1.33;1.33;;;;;45.05;21.78;100842.63;5036939;28;45411;-76
2023/08/11 08:33:43;;;;;;;;;5.67;5.33;;;;;45.20;21.17;100831.72;5036303;28;46152;-75
2023/08/11 08:36:09;;;;;;;;;5.33;5.33;;;;;44.71;21.90;100800.53;5036284;28;45482;-76
2023/08/11 08:38:35;;;;;;;;;13.00;11.33;;;;;45.13;22.18;100833.47;5036569;28;45277;-77
2023/08/11 08:41:07;;;;;;;;;6.67;5.33;;;;;45.48;22.28;100828.63;5035934;28;45427;-74
2023/08/11 08:43:34;;;;;;;;;5.00;4.67;;;;;45.88;21.24;100832.31;5034809;28;45482;-74
2023/08/11 08:46:02;;;;;;;;;5.00;5.00;;;;;45.86;21.49;100837.16;5035342;28;45498;-76
2023/08/11 08:48:56;;;;;;;;;4.33;4.33;;;;;45.81;21.22;100837.69;5035318;28;45493;-75
2023/08/11 08:51:22;;;;;;;;;7.00;6.00;;;;;46.07;20.56;100842.13;5032870;28;45419;-74
2023/08/11 08:53:48;;;;;;;;;5.33;5.33;;;;;46.32;21.02;100842.84;5034942;28;46239;-76
2023/08/11 08:56:14;;;;;;;;;5.67;5.33;;;;;45.68;20.54;100831.00;5035665;28;45300;-74
2023/08/11 08:58:41;;;;;;;;;7.00;7.00;;;;;45.71;20.95;100841.72;5036204;28;45581;-76
2023/08/11 09:01:09;;;;;;;;;6.67;6.33;;;;;46.33;21.38;100841.81;5024703;28;45724;-73
2023/08/11 09:03:37;;;;;;;;;6.67;6.67;;;;;47.19;20.54;100842.59;5028654;28;46123;-76
2023/08/11 09:06:03;;;;;;;;;5.33;5.33;;;;;47.55;20.58;100841.91;5034890;28;45334;-75
2023/08/11 09:08:32;;;;;;;;;5.67;5.67;;;;;47.76;20.13;100840.31;5035836;28;45591;-74
2023/08/11 09:10:58;;;;;;;;;6.33;6.33;;;;;47.59;19.54;100831.34;5035559;28;45459;-73
2023/08/11 09:13:26;;;;;;;;;7.33;7.33;;;;;47.40;20.64;100838.28;5033982;28;45582;-78
2023/08/11 09:15:54;;;;;;;;;7.33;5.33;;;;;48.12;20.04;100834.00;5035071;28;45386;-77
2023/08/11 09:18:22;;;;;;;;;6.00;6.00;;;;;48.13;19.64;100833.81;5031259;28;45507;-75
2023/08/11 09:20:49;;;;;;;;;8.33;8.33;;;;;47.88;19.50;100832.38;5035323;28;45261;-76
2023/08/11 09:23:18;;;;;;;;;8.00;7.00;;;;;48.22;19.83;100836.47;5035478;28;46420;-77
2023/08/11 09:25:45;;;;;;;;;6.67;5.33;;;;;48.53;18.85;100842.63;5033422;28;45520;-77
2023/08/11 09:28:12;;;;;;;;;9.00;7.00;;;;;47.78;19.81;100841.00;5035162;28;45636;-74
2023/08/11 09:30:38;;;;;;;;;8.00;7.67;;;;;47.80;20.46;100819.50;5035624;28;45467;-77
2023/08/11 09:33:07;;;;;;;;;7.33;7.33;;;;;48.11;19.64;100840.59;5033383;28;47088;-74
2023/08/11 09:35:34;;;;;;;;;7.00;6.00;;;;;47.97;19.92;100822.94;5033616;28;45419;-73
2023/08/11 09:38:00;;;;;;;;;10.33;10.33;;;;;47.91;19.43;100840.28;5034871;28;45494;-74
2023/08/11 09:40:26;;;;;;;;;9.33;9.00;;;;;47.42;19.77;100823.19;5032321;28;45498;-74
2023/08/11 09:42:56;;;;;;;;;10.00;10.00;;;;;47.30;20.52;100832.16;5032454;28;47651;-74
2023/08/11 09:45:23;;;;;;;;;8.67;8.67;;;;;46.95;20.83;100837.28;5033604;28;45446;-75
2023/08/11 09:47:49;;;;;;;;;9.33;9.33;;;;;47.37;20.51;100838.63;5032480;28;45540;-74
2023/08/11 09:50:15;;;;;;;;;7.00;7.00;;;;;47.30;20.72;100830.25;5034453;28;45451;-74
2023/08/11 09:52:43;;;;;;;;;8.00;7.33;;;;;47.00;21.39;100829.31;5034038;28;45521;-74
2023/08/11 09:55:09;;;;;;;;;9.67;9.67;;;;;46.96;22.04;100836.25;5034056;28;45481;-74
2023/08/11 09:57:37;;;;;;;;;9.67;9.00;;;;;46.08;21.94;100835.53;5033745;28;45290;-74
2023/08/11 10:00:11;;;;;;;;;11.33;11.00;;;;;45.91;22.42;100831.97;5034117;28;45442;-73
2023/08/11 10:02:44;;;;;;;;;11.67;10.67;;;;;46.51;21.73;100826.88;5032624;28;47228;-75
2023/08/11 10:05:11;;;;;;;;;16.67;15.00;;;;;46.16;22.39;100834.63;5033491;28;45594;-74
2023/08/11 10:07:43;;;;;;;;;12.00;12.00;;;;;45.51;22.77;100820.00;5029809;28;45285;-74
2023/08/11 10:10:19;;;;;;;;;12.67;12.33;;;;;45.75;22.82;100834.81;5033600;28;45533;-73
2023/08/11 10:12:51;;;;;;;;;13.33;13.33;;;;;45.45;21.96;100818.81;5034242;28;45801;-74
2023/08/11 10:15:21;;;;;;;;;16.33;15.67;;;;;44.78;23.53;100810.69;5036298;28;45577;-74
2023/08/11 10:17:48;;;;;;;;;15.67;15.67;;;;;44.43;24.02;100823.72;5037548;28;45328;-74
2023/08/11 10:20:14;;;;;;;;;17.33;17.33;;;;;43.82;23.73;100819.34;5038090;28;45525;-74
2023/08/11 10:22:41;;;;;;;;;18.33;16.67;;;;;43.32;24.81;100817.28;5036728;28;45419;-74
2023/08/11 10:25:08;;;;;;;;;12.33;12.00;;;;;43.14;25.14;100800.81;5037715;28;45447;-73
2023/08/11 10:27:35;;;;;;;;;14.67;13.00;;;;;43.24;24.59;100798.84;5036278;28;45477;-74
2023/08/11 10:30:04;;;;;;;;;17.00;14.67;;;;;43.06;24.93;100809.88;5038291;28;45467;-73
2023/08/11 10:32:33;;;;;;;;;16.33;16.00;;;;;42.55;25.56;100798.56;5038160;28;45487;-74
2023/08/11 10:34:59;;;;;;;;;14.33;14.33;;;;;42.41;25.48;100793.59;5036962;28;46017;-74
2023/08/11 10:37:30;;;;;;;;;16.00;14.67;;;;;42.33;26.26;100800.72;5038259;28;45418;-73
2023/08/11 10:40:08;;;;;;;;;16.67;14.67;;;;;42.40;26.25;100795.47;5035780;28;45438;-74
2023/08/11 10:42:37;;;;;;;;;12.33;12.33;;;;;42.70;26.39;100782.41;5038372;28;46240;-77
2023/08/11 10:45:12;;;;;;;;;15.67;15.00;;;;;42.98;25.92;100785.06;5035045;28;45931;-77
2023/08/11 10:47:59;;;;;;;;;14.33;14.00;;;;;43.29;25.55;100791.00;5036203;28;45457;-75
2023/08/11 10:50:27;;;;;;;;;15.00;12.67;;;;;43.20;25.91;100798.28;5037322;28;45536;-76
2023/08/11 10:53:21;;;;;;;;;14.33;13.67;;;;;43.46;25.84;100797.47;5036877;28;46049;-75
2023/08/11 10:56:00;;;;;;;;;14.00;13.67;;;;;43.42;25.26;100780.41;5036132;28;45539;-75
2023/08/11 10:58:29;;;;;;;;;16.67;15.33;;;;;43.31;25.12;100783.44;5037292;28;45458;-75
2023/08/11 11:00:57;;;;;;;;;16.00;16.00;;;;;42.83;25.94;100776.50;5038327;28;45252;-75
2023/08/11 11:03:22;;;;;;;;;15.67;15.00;;;;;41.89;26.36;100777.69;5037450;28;46234;-75
2023/08/11 11:05:48;;;;;;;;;14.33;14.00;;;;;41.59;27.37;100779.69;5037115;28;45386;-75
2023/08/11 11:08:14;;;;;;;;;17.00;15.67;;;;;41.05;28.07;100779.38;5037424;28;45454;-76
2023/08/11 11:10:41;;;;;;;;;14.67;13.67;;;;;41.03;28.08;100781.41;5036342;28;45427;-76
2023/08/11 11:13:07;;;;;;;;;13.00;13.00;;;;;40.40;28.86;100789.16;5037390;28;46058;-76
2023/08/11 11:15:33;;;;;;;;;15.33;15.00;;;;;39.83;29.58;100766.91;5036755;28;45445;-77
2023/08/11 11:17:59;;;;;;;;;13.00;12.33;;;;;39.73;30.35;100778.69;5037902;28;45381;-76
2023/08/11 11:20:25;;;;;;;;;14.67;14.00;;;;;39.22;30.15;100785.00;5037684;28;45411;-74